createdAt,value
2018-10-21T00:02:29.077Z,22.73
2018-10-21T00:04:58.293Z,20.10
2018-10-21T00:07:29.819Z,23.77
2018-10-21T00:09:59.048Z,25.13
2018-10-21T00:12:29.259Z,22.70
2018-10-21T00:14:59.743Z,22.43
2018-10-21T00:17:28.913Z,24.13
2018-10-21T00:19:58.271Z,20.20
2018-10-21T00:22:27.687Z,17.47
2018-10-21T00:24:57.697Z,21.43
2018-10-21T00:27:26.911Z,21.40
2018-10-21T00:29:56.108Z,21.30
2018-10-21T00:32:58.942Z,20.93
2018-10-21T00:35:28.018Z,21.67
2018-10-21T00:37:59.564Z,24.87
2018-10-21T00:40:28.822Z,19.67
2018-10-21T00:42:58.013Z,23.73
2018-10-21T00:45:27.271Z,20.67
2018-10-21T00:47:56.757Z,21.37
2018-10-21T00:50:26.238Z,23.20
2018-10-21T00:52:55.416Z,20.97
2018-10-21T00:55:24.582Z,22.27
2018-10-21T00:57:55.084Z,19.77
2018-10-21T01:00:24.263Z,26.40
2018-10-21T01:02:53.588Z,22.57
2018-10-21T01:05:22.817Z,27.80
2018-10-21T01:07:52.056Z,21.87
2018-10-21T01:10:21.159Z,22.60
2018-10-21T01:12:50.368Z,27.87
2018-10-21T01:15:20.487Z,24.57
2018-10-21T01:17:49.564Z,23.23
2018-10-21T01:20:18.927Z,25.07
2018-10-21T01:22:48.272Z,26.90
2018-10-21T01:25:17.518Z,27.83
2018-10-21T01:27:46.803Z,28.07
2018-10-21T01:30:16.387Z,22.10
2018-10-21T01:32:45.396Z,22.67
2018-10-21T01:35:14.575Z,26.80
2018-10-21T01:37:43.733Z,26.57
2018-10-21T01:40:49.033Z,23.57
2018-10-21T01:43:21.396Z,23.00
2018-10-21T01:45:50.703Z,25.10
2018-10-21T01:48:21.365Z,26.90
2018-10-21T01:50:50.623Z,29.23
2018-10-21T01:53:20.340Z,27.70
2018-10-21T01:55:49.768Z,27.40
2018-10-21T01:58:20.351Z,25.27
2018-10-21T02:00:49.774Z,25.20
2018-10-21T02:03:18.927Z,29.13
2018-10-21T02:05:50.242Z,24.20
2018-10-21T02:08:19.367Z,23.00
2018-10-21T02:10:48.455Z,25.23
2018-10-21T02:13:21.537Z,19.77
2018-10-21T02:15:51.313Z,26.50
2018-10-21T02:18:20.510Z,21.20
2018-10-21T02:20:49.996Z,22.70
2018-10-21T02:23:19.896Z,25.37
2018-10-21T02:25:48.998Z,23.70
2018-10-21T02:28:21.777Z,23.73
2018-10-21T02:30:50.925Z,23.87
2018-10-21T02:33:20.093Z,21.97
2018-10-21T02:35:50.452Z,25.33
2018-10-21T02:38:19.552Z,23.27
2018-10-21T02:41:41.294Z,24.53
2018-10-21T02:44:14.635Z,22.83
2018-10-21T02:46:44.507Z,21.90
2018-10-21T02:49:14.398Z,28.40
2018-10-21T02:51:44.668Z,24.87
2018-10-21T02:54:13.938Z,32.23
2018-10-21T02:56:43.182Z,24.37
2018-10-21T02:59:13.160Z,24.87
2018-10-21T03:01:42.274Z,27.30
2018-10-21T03:04:11.372Z,24.30
2018-10-21T03:06:41.863Z,24.83
2018-10-21T03:09:10.968Z,23.40
2018-10-21T03:11:40.032Z,27.10
2018-10-21T03:14:10.040Z,28.30
2018-10-21T03:16:39.376Z,39.97
2018-10-21T03:19:08.360Z,40.87
2018-10-21T03:21:38.203Z,39.90
2018-10-21T03:24:21.053Z,30.93
2018-10-21T03:26:50.250Z,25.47
2018-10-21T03:29:19.378Z,22.20
2018-10-21T03:31:48.449Z,30.63
2018-10-21T03:34:17.719Z,39.33
2018-10-21T03:36:46.812Z,51.87
2018-10-21T03:39:15.933Z,74.17
2018-10-21T03:41:45.263Z,92.80
2018-10-21T03:44:14.409Z,55.67
2018-10-21T03:46:44.886Z,44.10
2018-10-21T03:49:13.831Z,36.37
2018-10-21T03:51:42.996Z,45.53
2018-10-21T03:54:12.227Z,34.37
2018-10-21T03:56:41.676Z,29.13
2018-10-21T03:59:10.815Z,28.43
2018-10-21T04:01:40.116Z,24.80
2018-10-21T04:04:09.342Z,28.67
2018-10-21T04:06:38.402Z,24.37
2018-10-21T04:09:08.028Z,31.87
2018-10-21T04:11:37.168Z,24.00
2018-10-21T04:14:06.389Z,25.83
2018-10-21T04:16:36.798Z,27.17
2018-10-21T04:19:06.227Z,25.83
2018-10-21T04:21:35.279Z,26.03
2018-10-21T04:24:04.388Z,26.60
2018-10-21T04:26:34.242Z,27.27
2018-10-21T04:29:03.503Z,25.00
2018-10-21T04:31:33.265Z,25.50
2018-10-21T04:34:02.497Z,38.27
2018-10-21T04:36:33.096Z,29.80
2018-10-21T04:39:19.309Z,31.17
2018-10-21T04:41:48.393Z,27.87
2018-10-21T04:44:27.097Z,32.67
2018-10-21T04:46:56.394Z,31.03
2018-10-21T04:49:25.240Z,30.50
2018-10-21T04:51:54.177Z,24.43
2018-10-21T04:54:23.647Z,28.00
2018-10-21T04:56:52.837Z,25.93
2018-10-21T04:59:21.971Z,26.53
2018-10-21T05:01:50.885Z,28.43
2018-10-21T05:04:20.281Z,23.27
2018-10-21T05:06:49.463Z,25.97
2018-10-21T05:09:18.581Z,28.90
2018-10-21T05:11:47.722Z,29.00
2018-10-21T05:14:16.813Z,29.63
2018-10-21T05:16:45.930Z,26.73
2018-10-21T05:19:15.549Z,24.73
2018-10-21T05:21:44.751Z,22.77
2018-10-21T05:24:14.854Z,22.90
2018-10-21T05:26:43.997Z,23.37
2018-10-21T05:29:13.626Z,24.47
2018-10-21T05:31:42.681Z,25.53
2018-10-21T05:34:11.876Z,24.13
2018-10-21T05:36:40.997Z,23.83
2018-10-21T05:39:12.187Z,22.43
2018-10-21T05:41:41.578Z,19.33
2018-10-21T05:44:10.781Z,21.07
2018-10-21T05:46:43.561Z,21.17
2018-10-21T05:49:12.721Z,25.90
2018-10-21T05:51:43.049Z,26.40
2018-10-21T05:54:15.359Z,29.57
2018-10-21T05:56:46.055Z,26.37
2018-10-21T05:59:15.633Z,24.80
2018-10-21T06:01:45.366Z,27.90
2018-10-21T06:04:15.612Z,27.47
2018-10-21T06:06:44.773Z,28.03
2018-10-21T06:09:15.771Z,24.83
2018-10-21T06:11:46.214Z,25.07
2018-10-21T06:14:15.259Z,24.70
2018-10-21T06:16:48.534Z,24.70
2018-10-21T06:19:20.897Z,25.87
2018-10-21T06:21:50.326Z,24.57
2018-10-21T06:24:19.455Z,24.90
2018-10-21T06:26:48.986Z,21.13
2018-10-21T06:29:17.873Z,23.70
2018-10-21T06:31:46.803Z,23.57
2018-10-21T06:34:16.657Z,24.43
2018-10-21T06:36:47.096Z,28.07
2018-10-21T06:39:17.940Z,23.57
2018-10-21T06:41:48.971Z,20.90
2018-10-21T06:44:18.215Z,25.47
2018-10-21T06:46:47.616Z,21.60
2018-10-21T06:49:17.777Z,22.90
2018-10-21T06:51:46.946Z,24.70
2018-10-21T06:54:16.276Z,27.40
2018-10-21T06:56:47.044Z,20.30
2018-10-21T06:59:16.975Z,22.17
2018-10-21T07:01:46.093Z,19.00
2018-10-21T07:04:15.642Z,22.00
2018-10-21T07:06:45.497Z,21.63
2018-10-21T07:09:14.707Z,23.77
2018-10-21T07:11:45.001Z,21.20
2018-10-21T07:14:17.359Z,23.00
2018-10-21T07:16:46.653Z,22.73
2018-10-21T07:19:15.945Z,22.17
2018-10-21T07:21:47.628Z,19.57
2018-10-21T07:24:17.728Z,26.13
2018-10-21T07:26:46.997Z,26.30
2018-10-21T07:29:17.652Z,27.67
2018-10-21T07:31:47.368Z,20.87
2018-10-21T07:34:16.726Z,22.57
2018-10-21T07:36:45.906Z,22.30
2018-10-21T07:39:15.318Z,24.77
2018-10-21T07:41:44.602Z,28.67
2018-10-21T07:44:19.242Z,24.03
2018-10-21T07:46:49.169Z,21.30
2018-10-21T07:49:19.223Z,21.60
2018-10-21T07:51:48.594Z,24.33
2018-10-21T07:54:17.733Z,23.63
2018-10-21T07:56:46.942Z,25.43
2018-10-21T07:59:16.536Z,24.60
2018-10-21T08:01:47.093Z,24.23
2018-10-21T08:04:16.394Z,23.00
2018-10-21T08:06:56.613Z,23.10
2018-10-21T08:09:26.512Z,24.70
2018-10-21T08:11:58.748Z,26.73
2018-10-21T08:14:32.352Z,22.77
2018-10-21T08:17:02.181Z,21.10
2018-10-21T08:19:31.308Z,22.27
2018-10-21T08:22:02.012Z,25.60
2018-10-21T08:24:31.167Z,24.13
2018-10-21T08:27:00.285Z,26.47
2018-10-21T08:29:30.253Z,28.97
2018-10-21T08:31:59.415Z,31.83
2018-10-21T08:34:28.567Z,29.20
2018-10-21T08:36:59.073Z,32.37
2018-10-21T08:39:28.272Z,26.07
2018-10-21T08:41:57.443Z,27.33
2018-10-21T08:44:27.746Z,42.53
2018-10-21T08:47:01.398Z,40.97
2018-10-21T08:49:32.555Z,39.30
2018-10-21T08:52:03.079Z,41.47
2018-10-21T08:54:32.287Z,40.57
2018-10-21T08:57:02.115Z,39.73
2018-10-21T08:59:31.398Z,44.37
2018-10-21T09:02:00.424Z,42.53
2018-10-21T09:04:30.027Z,38.33
2018-10-21T09:06:59.826Z,42.23
2018-10-21T09:09:29.052Z,43.90
2018-10-21T09:12:00.277Z,49.67
2018-10-21T09:14:32.212Z,41.03
2018-10-21T09:17:05.736Z,40.00
2018-10-21T09:19:35.457Z,47.27
2018-10-21T09:22:05.351Z,44.10
2018-10-21T09:24:35.029Z,44.43
2018-10-21T09:27:04.291Z,42.00
2018-10-21T09:29:33.476Z,39.57
2018-10-21T09:32:02.632Z,31.27
2018-10-21T09:34:32.231Z,41.17
2018-10-21T09:37:01.528Z,71.37
2018-10-21T09:39:31.892Z,65.20
2018-10-21T09:42:01.468Z,43.13
2018-10-21T09:44:31.665Z,37.73
2018-10-21T09:47:03.006Z,34.20
2018-10-21T09:49:32.626Z,33.13
2018-10-21T09:52:01.804Z,35.50
2018-10-21T09:54:31.562Z,28.57
2018-10-21T09:57:00.676Z,31.77
2018-10-21T09:59:31.084Z,28.83
2018-10-21T10:02:06.668Z,29.23
2018-10-21T10:04:35.951Z,28.47
2018-10-21T10:07:09.632Z,24.17
2018-10-21T10:09:39.098Z,25.87
2018-10-21T10:12:17.800Z,29.67
2018-10-21T10:14:47.922Z,28.43
2018-10-21T10:17:17.361Z,27.87
2018-10-21T10:19:50.774Z,23.07
2018-10-21T10:22:21.315Z,27.13
2018-10-21T10:24:53.794Z,23.97
2018-10-21T10:27:24.640Z,25.20
2018-10-21T10:29:54.735Z,24.70
2018-10-21T10:32:26.646Z,24.87
2018-10-21T10:34:55.879Z,27.07
2018-10-21T10:37:27.055Z,24.53
2018-10-21T10:40:00.889Z,25.53
2018-10-21T10:42:33.417Z,20.57
2018-10-21T10:45:03.698Z,19.40
2018-10-21T10:47:33.965Z,17.60
2018-10-21T10:50:03.272Z,19.17
2018-10-21T10:52:33.104Z,16.70
2018-10-21T10:55:03.860Z,24.13
2018-10-21T10:57:33.517Z,23.70
2018-10-21T11:00:03.689Z,16.73
2018-10-21T11:02:33.892Z,20.83
2018-10-21T11:05:03.219Z,24.90
2018-10-21T11:07:35.205Z,17.30
2018-10-21T11:10:05.938Z,17.93
2018-10-21T11:12:36.306Z,17.70
2018-10-21T11:15:07.448Z,16.57
2018-10-21T11:17:38.930Z,18.20
2018-10-21T11:20:08.232Z,14.37
2018-10-21T11:22:37.668Z,16.23
2018-10-21T11:25:11.274Z,14.37
2018-10-21T11:30:17.655Z,13.97
2018-10-21T11:32:47.226Z,13.63
2018-10-21T11:35:16.457Z,18.30
2018-10-21T11:37:47.636Z,14.37
2018-10-21T11:40:16.992Z,12.80
2018-10-21T11:42:50.310Z,18.97
2018-10-21T11:45:20.184Z,12.53
2018-10-21T11:47:55.721Z,12.90
2018-10-21T11:50:25.611Z,9.40
2018-10-21T11:52:54.940Z,11.50
2018-10-21T11:55:24.240Z,11.83
2018-10-21T11:57:55.550Z,11.07
2018-10-21T12:00:25.233Z,11.37
2018-10-21T12:02:58.300Z,13.33
2018-10-21T12:05:28.181Z,13.87
2018-10-21T12:07:59.711Z,11.47
2018-10-21T12:10:30.034Z,12.87
2018-10-21T12:13:00.715Z,16.70
2018-10-21T12:15:32.045Z,17.17
2018-10-21T12:18:05.336Z,13.87
2018-10-21T12:20:36.385Z,11.30
2018-10-21T12:23:10.729Z,24.03
2018-10-21T12:25:41.185Z,11.10
2018-10-21T12:28:14.365Z,15.80
2018-10-21T12:30:45.125Z,23.30
2018-10-21T12:33:16.620Z,14.57
2018-10-21T12:35:45.925Z,10.37
2018-10-21T12:38:16.382Z,12.13
2018-10-21T12:40:46.000Z,18.37
2018-10-21T12:43:17.613Z,9.93
2018-10-21T12:45:47.617Z,10.60
2018-10-21T12:48:17.903Z,108.67
2018-10-21T12:50:47.471Z,24.53
2018-10-21T12:53:17.684Z,10.53
2018-10-21T12:55:49.331Z,21.33
2018-10-21T12:58:20.196Z,23.57
2018-10-21T13:00:51.546Z,51.10
2018-10-21T13:03:23.464Z,16.37
2018-10-21T13:05:52.979Z,13.50
2018-10-21T13:08:23.270Z,8.43
2018-10-21T13:10:55.039Z,11.77
2018-10-21T13:13:24.522Z,14.90
2018-10-21T13:16:02.323Z,15.03
2018-10-21T13:18:33.319Z,25.50
2018-10-21T13:21:04.591Z,19.43
2018-10-21T13:23:35.288Z,12.63
2018-10-21T13:26:09.436Z,11.60
2018-10-21T13:28:40.630Z,10.17
2018-10-21T13:31:13.298Z,10.20
2018-10-21T13:33:46.422Z,8.80
2018-10-21T13:36:16.357Z,10.80
2018-10-21T13:38:46.863Z,13.47
2018-10-21T13:41:16.239Z,14.90
2018-10-21T13:43:46.060Z,12.03
2018-10-21T13:46:17.032Z,11.23
2018-10-21T13:48:47.755Z,11.80
2018-10-21T13:51:17.010Z,10.27
2018-10-21T13:53:46.232Z,10.33
2018-10-21T13:56:15.579Z,11.37
2018-10-21T13:58:44.983Z,8.63
2018-10-21T14:01:14.356Z,7.00
2018-10-21T14:03:46.490Z,10.67
2018-10-21T14:06:15.782Z,6.77
2018-10-21T14:08:45.629Z,7.20
2018-10-21T14:11:14.879Z,7.27
2018-10-21T14:13:45.551Z,10.60
2018-10-21T14:16:15.017Z,10.03
2018-10-21T14:18:45.602Z,11.23
2018-10-21T14:21:15.698Z,11.20
2018-10-21T14:23:45.269Z,15.37
2018-10-21T14:26:15.034Z,18.17
2018-10-21T14:28:44.270Z,11.83
2018-10-21T14:31:13.539Z,11.43
2018-10-21T14:33:43.185Z,7.63
2018-10-21T14:36:12.627Z,10.57
2018-10-21T14:38:42.878Z,9.73
2018-10-21T14:41:12.562Z,15.33
2018-10-21T14:43:42.304Z,10.13
2018-10-21T14:46:11.933Z,6.63
2018-10-21T14:48:42.098Z,5.93
2018-10-21T14:51:12.097Z,10.77
2018-10-21T14:53:42.234Z,12.47
2018-10-21T14:56:15.220Z,10.57
2018-10-21T14:58:45.245Z,14.23
2018-10-21T15:01:14.572Z,11.10
2018-10-21T15:03:44.170Z,16.27
2018-10-21T15:06:14.519Z,26.03
2018-10-21T15:08:45.725Z,24.40
2018-10-21T15:11:17.242Z,20.90
2018-10-21T15:13:46.613Z,31.03
2018-10-21T15:16:15.873Z,23.70
2018-10-21T15:18:46.000Z,38.50
2018-10-21T15:21:16.655Z,60.67
2018-10-21T15:23:46.865Z,57.67
2018-10-21T15:26:16.790Z,43.47
2018-10-21T15:28:46.112Z,26.80
2018-10-21T15:31:16.188Z,16.00
2018-10-21T15:33:47.624Z,11.20
2018-10-21T15:36:17.126Z,7.77
2018-10-21T15:38:47.561Z,7.43
2018-10-21T15:41:20.525Z,3.60
2018-10-21T15:43:51.150Z,3.70
2018-10-21T15:46:20.667Z,4.90
2018-10-21T15:48:51.433Z,2.93
2018-10-21T15:51:23.081Z,4.97
2018-10-21T15:53:53.350Z,2.87
2018-10-21T15:56:24.072Z,4.43
2018-10-21T15:58:58.561Z,3.50
2018-10-21T16:01:28.059Z,4.23
2018-10-21T16:03:59.395Z,3.40
2018-10-21T16:06:30.846Z,3.73
2018-10-21T16:09:08.499Z,4.30
2018-10-21T16:11:38.749Z,7.10
2018-10-21T16:14:09.821Z,5.87
2018-10-21T16:16:41.874Z,6.57
2018-10-21T16:19:12.871Z,7.00
2018-10-21T16:21:44.984Z,6.83
2018-10-21T16:24:19.404Z,3.30
2018-10-21T16:26:52.326Z,5.53
2018-10-21T16:29:22.683Z,4.50
2018-10-21T16:31:57.498Z,4.90
2018-10-21T16:34:29.694Z,5.30
2018-10-21T16:37:01.095Z,4.23
2018-10-21T16:39:31.264Z,5.13
2018-10-21T16:42:00.586Z,5.03
2018-10-21T16:44:31.650Z,5.67
2018-10-21T16:47:01.170Z,9.73
2018-10-21T16:49:30.445Z,7.33
2018-10-21T16:52:01.443Z,9.60
2018-10-21T16:54:30.975Z,5.73
2018-10-21T16:57:01.570Z,9.23
2018-10-21T16:59:36.821Z,7.20
2018-10-21T17:02:07.490Z,9.53
2018-10-21T17:04:39.173Z,8.13
2018-10-21T17:07:11.774Z,8.93
2018-10-21T17:09:47.897Z,9.33
2018-10-21T17:12:20.237Z,8.77
2018-10-21T17:14:55.989Z,7.87
2018-10-21T17:17:30.791Z,11.43
2018-10-21T17:20:07.409Z,9.33
2018-10-21T17:22:41.220Z,7.70
2018-10-21T17:25:15.449Z,12.07
2018-10-21T17:27:51.532Z,10.63
2018-10-21T17:30:24.050Z,11.20
2018-10-21T17:32:54.352Z,13.33
2018-10-21T17:35:28.728Z,9.87
2018-10-21T17:37:59.825Z,9.10
2018-10-21T17:40:32.850Z,8.63
2018-10-21T17:43:06.773Z,8.13
2018-10-21T17:45:38.966Z,7.27
2018-10-21T17:48:15.712Z,6.70
2018-10-21T17:50:47.700Z,8.70
2018-10-21T17:53:17.851Z,6.60
2018-10-21T17:55:51.067Z,5.93
2018-10-21T17:58:20.747Z,7.87
2018-10-21T18:00:51.994Z,15.67
2018-10-21T18:03:23.041Z,18.43
2018-10-21T18:05:52.673Z,17.00
2018-10-21T18:08:22.251Z,17.03
2018-10-21T18:10:52.426Z,13.03
2018-10-21T18:13:23.010Z,13.37
2018-10-21T18:15:52.814Z,11.97
2018-10-21T18:18:26.401Z,15.40
2018-10-21T18:20:59.754Z,14.30
2018-10-21T18:23:30.463Z,16.13
2018-10-21T18:26:03.762Z,16.47
2018-10-21T18:28:32.806Z,19.80
2018-10-21T18:31:03.601Z,16.90
2018-10-21T18:33:34.353Z,14.93
2018-10-21T18:36:05.382Z,17.17
2018-10-21T18:38:35.501Z,21.33
2018-10-21T18:41:06.422Z,23.83
2018-10-21T18:43:35.834Z,18.53
2018-10-21T18:46:09.961Z,16.83
2018-10-21T18:48:40.236Z,15.27
2018-10-21T18:51:10.751Z,16.67
2018-10-21T18:53:43.437Z,15.40
2018-10-21T18:56:14.448Z,14.23
2018-10-21T18:58:45.159Z,21.77
2018-10-21T19:01:14.461Z,28.27
2018-10-21T19:03:45.397Z,31.93
2018-10-21T19:06:16.763Z,34.30
2018-10-21T19:08:47.594Z,32.00
2018-10-21T19:11:18.973Z,27.87
2018-10-21T19:13:50.934Z,26.07
2018-10-21T19:16:22.395Z,18.07
2018-10-21T19:18:53.591Z,13.43
2018-10-21T19:21:22.944Z,10.33
2018-10-21T19:23:54.484Z,8.63
2018-10-21T19:26:26.978Z,9.07
2018-10-21T19:28:58.138Z,7.00
2018-10-21T19:31:29.923Z,6.50
2018-10-21T19:34:07.103Z,8.10
2018-10-21T19:36:39.033Z,6.53
2018-10-21T19:39:10.771Z,5.67
2018-10-21T19:41:40.145Z,6.27
2018-10-21T19:44:14.532Z,8.40
2018-10-21T19:46:43.842Z,15.00
2018-10-21T19:49:16.246Z,16.63
2018-10-21T19:51:46.669Z,15.07
2018-10-21T19:54:17.237Z,14.60
2018-10-21T19:56:48.138Z,13.37
2018-10-21T19:59:29.484Z,11.93
2018-10-21T20:01:58.938Z,11.17
2018-10-21T20:04:28.570Z,10.40
2018-10-21T20:07:00.391Z,12.33
2018-10-21T20:09:33.014Z,8.07
2018-10-21T20:12:02.466Z,9.67
2018-10-21T20:14:35.209Z,10.53
2018-10-21T20:17:04.931Z,5.60
2018-10-21T20:19:35.278Z,5.67
2018-10-21T20:22:10.399Z,12.73
2018-10-21T20:24:41.566Z,6.60
2018-10-21T20:27:12.425Z,6.83
2018-10-21T20:29:52.399Z,7.90
2018-10-21T20:32:21.728Z,7.30
2018-10-21T20:34:51.110Z,6.03
2018-10-21T20:37:27.882Z,7.77
2018-10-21T20:40:00.645Z,9.77
2018-10-21T20:42:32.097Z,6.50
2018-10-21T20:45:01.793Z,8.93
2018-10-21T20:47:31.548Z,9.17
2018-10-21T20:50:00.738Z,8.37
2018-10-21T20:52:30.004Z,11.73
2018-10-21T20:55:01.887Z,12.50
2018-10-21T20:57:31.299Z,7.87
2018-10-21T21:00:04.844Z,12.13
2018-10-21T21:02:36.776Z,9.53
2018-10-21T21:05:07.573Z,9.57
2018-10-21T21:07:36.869Z,10.17
2018-10-21T21:10:07.017Z,9.07
2018-10-21T21:12:36.307Z,10.67
2018-10-21T21:15:07.405Z,9.73
2018-10-21T21:17:37.677Z,10.57
2018-10-21T21:20:07.637Z,9.97
2018-10-21T21:22:37.888Z,11.97
2018-10-21T21:25:08.089Z,9.70
2018-10-21T21:27:38.083Z,11.60
2018-10-21T21:30:08.793Z,7.43
2018-10-21T21:32:38.022Z,6.20
2018-10-21T21:35:08.062Z,8.73
2018-10-21T21:37:40.034Z,6.10
2018-10-21T21:40:11.910Z,6.67
2018-10-21T21:42:42.006Z,4.53
2018-10-21T21:45:11.308Z,5.57
2018-10-21T21:47:41.720Z,9.27
2018-10-21T21:50:10.885Z,7.80
2018-10-21T21:52:40.945Z,8.73
2018-10-21T21:55:10.259Z,8.90
2018-10-21T21:57:39.518Z,9.63
2018-10-21T22:00:13.783Z,6.43
2018-10-21T22:02:43.544Z,12.80
2018-10-21T22:05:13.819Z,9.37
2018-10-21T22:07:43.198Z,9.13
2018-10-21T22:10:14.209Z,8.60
2018-10-21T22:12:44.844Z,11.33
2018-10-21T22:15:14.690Z,9.07
2018-10-21T22:17:44.032Z,11.17
2018-10-21T22:20:14.012Z,9.67
2018-10-21T22:22:43.448Z,8.10
2018-10-21T22:25:13.974Z,9.50
2018-10-21T22:27:43.229Z,10.03
2018-10-21T22:30:14.586Z,8.47
2018-10-21T22:32:43.718Z,8.70
2018-10-21T22:35:14.699Z,7.37
2018-10-21T22:37:43.939Z,6.73
2018-10-21T22:40:14.601Z,5.07
2018-10-21T22:42:43.853Z,8.00
2018-10-21T22:45:13.182Z,5.53
2018-10-21T22:47:42.564Z,8.13
2018-10-21T22:50:13.478Z,4.13
2018-10-21T22:52:44.772Z,6.47
2018-10-21T22:55:15.042Z,7.33
2018-10-21T22:57:44.313Z,6.17
2018-10-21T23:00:13.721Z,4.33
2018-10-21T23:02:43.020Z,5.03
2018-10-21T23:05:13.673Z,5.37
2018-10-21T23:07:44.062Z,4.07
2018-10-21T23:10:13.836Z,5.30
2018-10-21T23:12:43.036Z,5.90
2018-10-21T23:15:12.276Z,8.30
2018-10-21T23:17:41.522Z,7.30
2018-10-21T23:20:11.674Z,5.83
2018-10-21T23:22:40.879Z,6.03
2018-10-21T23:25:10.142Z,7.47
2018-10-21T23:27:39.985Z,8.00
2018-10-21T23:30:09.208Z,16.57
2018-10-21T23:32:41.977Z,10.83
2018-10-21T23:35:11.300Z,10.30
2018-10-21T23:37:42.785Z,8.47
2018-10-21T23:40:12.178Z,6.27
2018-10-21T23:42:41.414Z,5.30
2018-10-21T23:45:10.900Z,9.93
2018-10-21T23:47:40.493Z,6.07
2018-10-21T23:50:10.189Z,6.37
2018-10-21T23:52:39.161Z,5.83
2018-10-21T23:55:08.261Z,8.50
2018-10-21T23:57:37.455Z,6.87
